Time;durP1;ratioP1;P1;durP2;ratioP2;P2;SDS_P1;SDS_P2;PMS_P1;PMS_P2;Temp;Humidity;BMP_temperature;BMP_pressure;BME280_temperature;BME280_humidity;BME280_pressure;Samples;Min_cycle;Max_cycle;Signal;HPM_P1;HPM_P2
2021/05/08 00:01:40;;;;;;;9.10;3.70;;;;;;;18.59;55.72;94411.59;5093094;28;20453;-76
2021/05/08 00:04:07;;;;;;;4.43;3.13;;;;;;;18.52;55.57;94430.16;5056922;28;21078;-77
2021/05/08 00:06:34;;;;;;;5.47;3.30;;;;;;;18.35;56.46;94419.94;5093384;28;20483;-76
2021/05/08 00:09:00;;;;;;;4.53;3.13;;;;;;;18.22;56.93;94428.63;5092844;28;20444;-77
2021/05/08 00:11:27;;;;;;;5.97;3.87;;;;;;;18.33;58.81;94421.97;5092801;28;20446;-76
2021/05/08 00:13:54;;;;;;;7.40;4.10;;;;;;;18.39;58.77;94421.22;5091883;28;20452;-77
2021/05/08 00:16:20;;;;;;;6.10;3.83;;;;;;;18.32;57.71;94421.16;5056331;28;20442;-77
2021/05/08 00:18:47;;;;;;;5.70;2.97;;;;;;;18.35;58.18;94423.44;5091860;28;20444;-76
2021/05/08 00:21:13;;;;;;;4.13;3.70;;;;;;;18.45;57.07;94425.75;5092470;28;20527;-76
2021/05/08 00:23:39;;;;;;;4.10;3.43;;;;;;;18.48;58.54;94422.72;5073806;28;20476;-76
2021/05/08 00:26:06;;;;;;;6.33;3.60;;;;;;;18.52;57.94;94422.19;5093043;28;20479;-76
2021/05/08 00:28:32;;;;;;;12.80;3.43;;;;;;;18.63;57.16;94425.38;5092668;28;20452;-76
2021/05/08 00:31:00;;;;;;;9.03;3.13;;;;;;;18.70;56.40;94423.59;5092918;28;20452;-77
2021/05/08 00:33:26;;;;;;;4.97;3.17;;;;;;;18.74;56.37;94430.97;5092671;28;20446;-76
2021/05/08 00:35:52;;;;;;;3.07;2.77;;;;;;;18.74;56.10;94430.16;5092516;28;20448;-76
2021/05/08 00:38:19;;;;;;;4.27;2.87;;;;;;;18.67;55.55;94447.88;5092500;28;20440;-76
2021/05/08 00:40:45;;;;;;;11.53;3.57;;;;;;;18.58;56.03;94463.13;5092897;28;20435;-77
2021/05/08 00:43:12;;;;;;;6.70;4.30;;;;;;;18.30;56.88;94473.66;5057003;28;20448;-76
2021/05/08 00:45:38;;;;;;;4.10;3.53;;;;;;;18.26;57.85;94472.38;5092515;28;20504;-76
2021/05/08 00:48:10;;;;;;;4.97;3.30;;;;;;;18.08;57.98;94482.56;5056873;28;20443;-76
2021/05/08 00:50:37;;;;;;;4.20;2.97;;;;;;;17.91;57.48;94474.81;5092918;28;20441;-76
2021/05/08 00:53:06;;;;;;;5.97;3.23;;;;;;;17.81;58.57;94484.88;5092333;28;20923;-76
2021/05/08 00:55:33;;;;;;;6.20;3.17;;;;;;;17.61;56.28;94491.72;5092892;28;20473;-76
2021/05/08 00:58:00;;;;;;;9.33;4.77;;;;;;;17.50;58.19;94502.78;5092552;28;20451;-77
2021/05/08 01:00:27;;;;;;;7.60;3.73;;;;;;;17.31;58.27;94510.25;5092756;28;20505;-76
2021/05/08 01:02:54;;;;;;;5.90;3.97;;;;;;;17.13;59.60;94501.00;5056599;28;20487;-76
2021/05/08 01:05:21;;;;;;;12.20;4.70;;;;;;;17.10;61.36;94520.75;5092582;28;20867;-76
2021/05/08 01:07:48;;;;;;;6.50;5.90;;;;;;;16.95;64.40;94538.41;5092528;28;20455;-76
2021/05/08 01:10:15;;;;;;;9.10;6.70;;;;;;;16.81;64.56;94537.38;5092410;28;20443;-76
2021/05/08 01:12:42;;;;;;;7.03;6.33;;;;;;;16.68;66.11;94553.00;5073617;28;20433;-76
2021/05/08 01:15:11;;;;;;;14.03;7.20;;;;;;;16.49;67.26;94567.50;5092836;28;20526;-75
2021/05/08 01:17:39;;;;;;;13.10;8.73;;;;;;;16.32;68.75;94569.41;5059589;28;20907;-76
2021/05/08 01:20:06;;;;;;;14.20;10.57;;;;;;;16.09;70.83;94582.56;5096013;28;20441;-75
2021/05/08 01:22:34;;;;;;;10.97;9.50;;;;;;;15.84;71.56;94583.63;5095982;28;20452;-76
2021/05/08 01:25:00;;;;;;;18.20;11.60;;;;;;;15.67;72.09;94596.09;5095733;28;20494;-75
2021/05/08 01:27:27;;;;;;;11.93;10.73;;;;;;;15.47;72.91;94595.59;5096537;28;20443;-75
2021/05/08 01:29:53;;;;;;;13.33;11.67;;;;;;;15.34;73.08;94597.94;5095766;28;20443;-75
2021/05/08 01:32:19;;;;;;;13.60;10.73;;;;;;;15.16;73.99;94579.59;5095895;28;20449;-75
2021/05/08 01:34:46;;;;;;;12.93;10.97;;;;;;;15.13;74.56;94589.66;5095987;28;20521;-75
2021/05/08 01:37:12;;;;;;;15.10;11.70;;;;;;;15.11;76.09;94605.69;5095892;28;20536;-75
2021/05/08 01:39:39;;;;;;;13.37;11.97;;;;;;;14.96;76.07;94611.78;5076326;28;20478;-75
2021/05/08 01:42:06;;;;;;;19.23;12.93;;;;;;;14.86;76.85;94612.75;5095505;28;20443;-75
2021/05/08 01:44:33;;;;;;;18.80;12.90;;;;;;;14.92;76.92;94613.91;5095901;28;20447;-76
2021/05/08 01:46:59;;;;;;;13.53;11.83;;;;;;;14.80;76.63;94623.97;5095475;28;20477;-75
2021/05/08 01:49:25;;;;;;;18.13;12.10;;;;;;;14.70;78.39;94622.44;5095385;28;20456;-76
2021/05/08 01:51:52;;;;;;;15.47;12.17;;;;;;;14.70;77.74;94625.91;5060047;28;20463;-75
2021/05/08 01:54:18;;;;;;;15.50;11.97;;;;;;;14.64;77.12;94636.31;5095356;28;20952;-75
2021/05/08 01:56:46;;;;;;;11.53;10.10;;;;;;;14.55;79.38;94628.38;5095789;28;20445;-76
2021/05/08 01:59:14;;;;;;;12.13;10.70;;;;;;;14.37;77.53;94640.81;5095555;28;20459;-75
2021/05/08 02:01:40;;;;;;;10.50;9.47;;;;;;;14.24;78.79;94630.72;5095098;28;20453;-75
2021/05/08 02:04:09;;;;;;;16.63;12.50;;;;;;;14.19;79.68;94632.16;5095551;28;20443;-75
2021/05/08 02:06:36;;;;;;;12.43;11.10;;;;;;;14.14;79.67;94640.53;5076463;28;20578;-75
2021/05/08 02:09:05;;;;;;;25.13;11.73;;;;;;;14.15;80.37;94642.19;5095334;28;20952;-75
2021/05/08 02:11:31;;;;;;;14.07;11.17;;;;;;;14.06;79.95;94652.88;5076877;28;20826;-75
2021/05/08 02:13:58;;;;;;;13.77;10.97;;;;;;;14.08;80.05;94654.38;5076466;28;20440;-75
2021/05/08 02:16:25;;;;;;;19.77;10.93;;;;;;;14.17;79.23;94655.25;5095265;28;20447;-75
2021/05/08 02:18:51;;;;;;;15.60;10.00;;;;;;;14.13;78.27;94670.53;5094804;28;20937;-75
2021/05/08 02:21:18;;;;;;;11.10;9.73;;;;;;;14.00;77.69;94645.59;5095108;28;20443;-75
2021/05/08 02:23:44;;;;;;;13.00;9.27;;;;;;;13.99;78.16;94667.69;5095206;28;20924;-76
2021/05/08 02:26:11;;;;;;;10.80;8.47;;;;;;;13.94;77.57;94670.78;5076689;28;20975;-75
2021/05/08 02:28:37;;;;;;;12.70;7.37;;;;;;;13.83;76.57;94665.75;5094812;28;20785;-75
2021/05/08 02:31:04;;;;;;;9.50;7.83;;;;;;;13.77;76.90;94683.03;5094773;28;20478;-75
2021/05/08 02:33:31;;;;;;;11.60;7.60;;;;;;;13.76;76.78;94676.09;5095278;28;20462;-75
2021/05/08 02:35:57;;;;;;;17.03;8.10;;;;;;;13.64;76.59;94685.25;5095361;28;20535;-75
2021/05/08 02:38:23;;;;;;;8.60;6.80;;;;;;;13.68;76.64;94691.06;5059269;28;20920;-75
2021/05/08 02:40:50;;;;;;;7.13;6.43;;;;;;;13.58;76.24;94688.47;5094643;28;20954;-75
2021/05/08 02:43:17;;;;;;;14.50;6.57;;;;;;;13.70;78.07;94708.38;5095003;28;20445;-75
2021/05/08 02:45:43;;;;;;;7.20;6.60;;;;;;;13.67;74.55;94703.41;5094967;28;20582;-75
2021/05/08 02:48:10;;;;;;;6.40;5.80;;;;;;;13.68;74.81;94715.59;5094472;28;20439;-75
2021/05/08 02:50:37;;;;;;;7.80;5.73;;;;;;;13.58;74.77;94718.31;5094508;28;20955;-75
2021/05/08 02:53:03;;;;;;;6.37;5.77;;;;;;;13.53;74.83;94715.31;5094839;28;20432;-76
2021/05/08 02:55:29;;;;;;;5.73;5.13;;;;;;;13.39;75.30;94705.31;5094223;28;20811;-75
2021/05/08 02:58:01;;;;;;;6.80;5.83;;;;;;;13.28;74.96;94721.34;5094856;28;20862;-75
2021/05/08 03:00:27;;;;;;;6.27;5.67;;;;;;;13.26;75.22;94731.22;5094738;28;20447;-76
2021/05/08 03:02:53;;;;;;;5.33;4.83;;;;;;;13.24;74.74;94730.53;5094859;28;20435;-75
2021/05/08 03:05:21;;;;;;;9.13;4.90;;;;;;;13.18;74.30;94725.88;5094767;28;20445;-75
2021/05/08 03:07:47;;;;;;;6.40;5.53;;;;;;;13.12;74.74;94729.91;5094431;28;20440;-75
2021/05/08 03:10:14;;;;;;;8.70;5.40;;;;;;;13.09;75.21;94729.38;5058909;28;20444;-75
2021/05/08 03:12:40;;;;;;;6.57;4.60;;;;;;;13.03;75.31;94733.44;5093996;28;20927;-75
2021/05/08 03:15:07;;;;;;;6.90;5.70;;;;;;;12.99;76.32;94751.31;5094354;28;20459;-74
2021/05/08 03:17:34;;;;;;;10.60;5.47;;;;;;;13.03;76.64;94765.88;5094193;28;20444;-75
2021/05/08 03:20:00;;;;;;;5.33;4.83;;;;;;;13.00;75.83;94766.16;5094073;28;20448;-76
2021/05/08 03:22:27;;;;;;;5.80;4.57;;;;;;;12.93;75.12;94780.88;5093956;28;20448;-75
2021/05/08 03:24:54;;;;;;;6.27;5.07;;;;;;;12.96;75.57;94774.50;5093942;28;20516;-75
2021/05/08 03:27:20;;;;;;;4.70;4.30;;;;;;;12.91;75.63;94782.84;5093673;28;20450;-73
2021/05/08 03:29:46;;;;;;;4.87;4.47;;;;;;;12.93;75.83;94788.78;5093567;28;21197;-74
2021/05/08 03:32:13;;;;;;;10.00;4.67;;;;;;;12.92;74.90;94800.31;5093540;28;20444;-74
2021/05/08 03:34:39;;;;;;;7.53;4.17;;;;;;;12.75;74.72;94798.47;5057335;28;20440;-74
2021/05/08 03:37:05;;;;;;;4.40;4.00;;;;;;;12.69;75.80;94807.75;5093274;28;20544;-75
2021/05/08 03:39:33;;;;;;;3.60;3.30;;;;;;;12.62;75.33;94821.63;5092549;28;20476;-75
2021/05/08 03:41:59;;;;;;;4.10;3.03;;;;;;;12.41;76.99;94813.94;5093890;28;20523;-75
2021/05/08 03:44:26;;;;;;;5.70;3.70;;;;;;;12.24;77.38;94812.91;5093455;28;20450;-75
2021/05/08 03:46:53;;;;;;;4.07;3.77;;;;;;;12.25;77.89;94816.34;5093312;28;20443;-75
2021/05/08 03:49:19;;;;;;;11.00;3.13;;;;;;;12.17;79.15;94821.50;5093468;28;20459;-75
2021/05/08 03:51:46;;;;;;;3.53;3.23;;;;;;;12.14;78.55;94827.00;5093159;28;20568;-76
2021/05/08 03:54:13;;;;;;;4.13;3.10;;;;;;;12.04;79.09;94843.66;5093216;28;20852;-75
2021/05/08 03:56:40;;;;;;;3.47;3.20;;;;;;;11.93;79.34;94846.44;5093026;28;20513;-75
2021/05/08 03:59:06;;;;;;;4.40;4.00;;;;;;;11.93;79.84;94864.00;5093114;28;20448;-75
2021/05/08 04:01:33;;;;;;;7.07;3.90;;;;;;;11.92;80.93;94873.69;5052231;28;20439;-74
2021/05/08 04:03:59;;;;;;;3.67;3.37;;;;;;;11.96;79.64;94882.13;5092490;28;20448;-75
2021/05/08 04:06:26;;;;;;;3.30;3.00;;;;;;;12.08;79.95;94896.78;5078573;28;20455;-76
2021/05/08 04:08:52;;;;;;;5.90;4.07;;;;;;;12.17;79.26;94910.94;5073033;28;21056;-76
2021/05/08 04:11:18;;;;;;;4.43;4.13;;;;;;;12.08;79.01;94920.47;5072877;28;20441;-75
2021/05/08 04:13:45;;;;;;;5.13;4.73;;;;;;;12.01;79.25;94922.00;5072953;28;20452;-74
2021/05/08 04:16:12;;;;;;;6.73;5.33;;;;;;;12.04;80.20;94927.81;5078296;28;20503;-74
2021/05/08 04:18:38;;;;;;;5.40;4.90;;;;;;;12.07;79.78;94938.06;5092898;28;20447;-75
2021/05/08 04:21:05;;;;;;;5.27;4.80;;;;;;;12.08;79.72;94931.81;5086077;28;20458;-75
2021/05/08 04:23:31;;;;;;;6.43;5.77;;;;;;;12.11;79.65;94946.50;5086677;28;20788;-76
2021/05/08 04:25:58;;;;;;;7.53;6.80;;;;;;;12.22;79.28;94956.06;5091744;28;20443;-75
2021/05/08 04:28:24;;;;;;;6.00;5.50;;;;;;;12.37;79.37;94959.94;5091750;28;20446;-75
2021/05/08 04:30:51;;;;;;;5.23;4.80;;;;;;;12.47;76.79;94965.22;5091769;28;20497;-75
2021/05/08 04:33:18;;;;;;;6.63;6.03;;;;;;;12.48;75.45;94953.72;5091850;28;20458;-76
2021/05/08 04:35:44;;;;;;;8.60;4.63;;;;;;;12.43;74.96;94974.31;5091527;28;20475;-75
2021/05/08 04:38:11;;;;;;;8.20;6.13;;;;;;;12.46;75.41;94963.53;5091997;28;20450;-76
2021/05/08 04:40:37;;;;;;;6.00;5.30;;;;;;;12.53;74.67;94970.75;5093291;28;20473;-75
2021/05/08 04:43:03;;;;;;;7.30;5.37;;;;;;;12.62;74.69;94964.63;5092423;28;20453;-74
2021/05/08 04:45:30;;;;;;;6.60;5.07;;;;;;;12.77;74.29;94969.47;5092187;28;20475;-75
2021/05/08 04:47:58;;;;;;;7.80;5.50;;;;;;;12.84;74.51;94963.47;5092418;28;20444;-75
2021/05/08 04:50:26;;;;;;;5.70;5.10;;;;;;;12.91;73.55;94977.75;5092689;28;20969;-75
2021/05/08 04:52:53;;;;;;;7.03;5.00;;;;;;;13.03;73.80;94973.97;5096518;28;20452;-75
2021/05/08 04:55:19;;;;;;;5.00;4.50;;;;;;;13.18;72.94;94979.63;5096117;28;20912;-75
2021/05/08 04:57:46;;;;;;;5.10;4.70;;;;;;;13.38;71.55;94974.31;5096185;28;20451;-76
2021/05/08 05:00:14;;;;;;;4.17;3.87;;;;;;;13.39;70.18;94974.16;5092256;28;20459;-75
2021/05/08 05:02:42;;;;;;;4.50;4.10;;;;;;;13.44;69.38;94985.09;5076025;28;20455;-75
2021/05/08 05:05:11;;;;;;;3.60;3.30;;;;;;;13.33;69.63;94990.56;5075663;28;20521;-74
2021/05/08 05:07:37;;;;;;;4.13;3.83;;;;;;;13.38;68.93;94988.31;5075617;28;20444;-75
2021/05/08 05:10:04;;;;;;;4.53;4.13;;;;;;;13.40;68.24;94967.91;5075805;28;20791;-74
2021/05/08 05:12:31;;;;;;;6.20;4.63;;;;;;;13.51;68.90;94975.63;5075630;28;20510;-75
2021/05/08 05:14:57;;;;;;;4.07;3.63;;;;;;;13.64;68.07;94984.03;5075505;28;20455;-75
2021/05/08 05:17:23;;;;;;;3.83;3.53;;;;;;;14.03;70.14;94994.38;5075748;28;20815;-74
2021/05/08 05:19:50;;;;;;;4.33;3.93;;;;;;;14.26;66.96;95000.88;5075794;28;20460;-75
2021/05/08 05:22:17;;;;;;;3.30;3.10;;;;;;;14.34;65.88;95013.31;5075800;28;20479;-75
2021/05/08 05:24:43;;;;;;;4.80;2.83;;;;;;;14.41;65.56;95010.91;5093984;28;20451;-74
2021/05/08 05:27:09;;;;;;;3.40;3.10;;;;;;;14.56;65.27;95015.56;5090995;28;20486;-75
2021/05/08 05:29:36;;;;;;;5.53;3.10;;;;;;;14.66;66.43;95020.75;5075821;28;20511;-78
2021/05/08 05:32:02;;;;;;;3.50;3.23;;;;;;;14.81;65.64;95032.47;5075483;28;20459;-76
2021/05/08 05:34:28;;;;;;;3.17;2.90;;;;;;;14.72;64.68;95033.34;5075443;28;20461;-75
2021/05/08 05:36:55;;;;;;;2.80;2.60;;;;;;;14.60;63.61;95029.28;5075647;28;21012;-77
2021/05/08 05:39:22;;;;;;;3.13;2.90;;;;;;;14.32;66.06;95030.31;5075908;28;20474;-77
2021/05/08 05:41:48;;;;;;;9.63;3.50;;;;;;;14.29;70.20;95041.16;5082501;28;20945;-76
2021/05/08 05:44:14;;;;;;;3.10;2.63;;;;;;;13.96;66.12;95046.06;5090826;28;20482;-76
2021/05/08 05:46:41;;;;;;;4.90;2.67;;;;;;;13.61;66.97;95034.44;5096108;28;20499;-77
2021/05/08 05:49:07;;;;;;;2.50;2.30;;;;;;;13.45;68.64;95036.84;5095555;28;20448;-75
2021/05/08 05:51:34;;;;;;;2.70;2.50;;;;;;;13.31;67.01;95030.25;5095516;28;20463;-75
2021/05/08 05:54:00;;;;;;;3.00;2.80;;;;;;;13.17;70.25;95035.09;5095680;28;20451;-75
2021/05/08 05:56:28;;;;;;;2.87;2.67;;;;;;;13.24;67.81;95034.41;5095001;28;20536;-77
2021/05/08 05:58:55;;;;;;;4.10;2.53;;;;;;;13.33;70.08;95033.56;5095629;28;20440;-75
2021/05/08 06:01:22;;;;;;;2.50;2.30;;;;;;;13.29;67.01;95044.50;5060043;28;20497;-75
2021/05/08 06:03:48;;;;;;;2.60;2.40;;;;;;;13.27;68.08;95043.81;5094394;28;20443;-76
2021/05/08 06:06:16;;;;;;;2.40;2.20;;;;;;;13.12;67.02;95045.22;5095332;28;20452;-74
2021/05/08 06:08:42;;;;;;;3.07;2.77;;;;;;;13.17;68.04;95058.81;5095333;28;20447;-76
2021/05/08 06:11:08;;;;;;;2.53;2.33;;;;;;;13.27;68.13;95064.91;5095588;28;20447;-76
2021/05/08 06:13:36;;;;;;;2.70;2.50;;;;;;;13.37;67.71;95065.72;5095031;28;20440;-75
2021/05/08 06:16:03;;;;;;;2.90;2.70;;;;;;;13.43;67.79;95059.88;5095221;28;20476;-76
2021/05/08 06:18:29;;;;;;;3.07;2.87;;;;;;;13.61;66.78;95079.25;5095191;28;20446;-75
2021/05/08 06:20:56;;;;;;;2.90;2.70;;;;;;;13.67;67.77;95075.22;5095057;28;20448;-77
2021/05/08 06:23:22;;;;;;;3.30;3.00;;;;;;;13.60;67.34;95072.31;5094934;28;20501;-75
2021/05/08 06:25:49;;;;;;;5.70;3.20;;;;;;;13.52;67.77;95074.81;5093592;28;20805;-75
2021/05/08 06:28:17;;;;;;;3.47;3.17;;;;;;;13.48;69.24;95080.53;5094324;28;20468;-75
2021/05/08 06:30:44;;;;;;;3.50;3.20;;;;;;;13.59;67.63;95083.03;5047148;28;20509;-75
2021/05/08 06:33:11;;;;;;;3.40;3.10;;;;;;;13.55;68.08;95077.19;5074008;28;20513;-75
2021/05/08 06:35:38;;;;;;;2.67;2.47;;;;;;;13.40;66.22;95077.78;5074202;28;20478;-74
2021/05/08 06:38:05;;;;;;;3.07;2.87;;;;;;;13.18;66.27;95063.13;5091068;28;20518;-75
2021/05/08 06:40:32;;;;;;;3.17;2.97;;;;;;;13.10;67.30;95069.06;5093886;28;20486;-75
2021/05/08 06:42:59;;;;;;;2.30;2.10;;;;;;;13.07;66.23;95063.25;5057969;28;20436;-76
2021/05/08 06:45:25;;;;;;;2.73;2.53;;;;;;;13.21;67.29;95062.84;5093980;28;20931;-75
2021/05/08 06:47:58;;;;;;;2.97;2.67;;;;;;;13.71;64.83;95057.28;5094356;28;20444;-76
2021/05/08 06:50:24;;;;;;;2.70;2.50;;;;;;;14.03;63.67;95056.88;5093953;28;20445;-74
2021/05/08 06:52:51;;;;;;;4.37;2.60;;;;;;;14.35;62.58;95061.69;5091399;28;20947;-76
2021/05/08 06:55:17;;;;;;;3.80;3.00;;;;;;;14.50;62.08;95070.78;5088646;28;20503;-76
2021/05/08 06:57:43;;;;;;;3.00;2.80;;;;;;;14.54;61.25;95069.50;5080174;28;20955;-76
2021/05/08 07:00:11;;;;;;;2.77;2.57;;;;;;;14.53;61.50;95068.69;5076330;28;20452;-75
2021/05/08 07:02:37;;;;;;;2.63;2.43;;;;;;;14.56;62.63;95078.13;5074718;28;20446;-76
2021/05/08 07:05:05;;;;;;;3.10;2.90;;;;;;;14.63;62.81;95076.53;5085324;28;20818;-77
2021/05/08 07:07:31;;;;;;;2.97;2.77;;;;;;;14.72;61.62;95080.06;5072706;28;20458;-75
2021/05/08 07:09:57;;;;;;;3.00;2.70;;;;;;;14.86;62.00;95085.66;5076397;28;20450;-77
2021/05/08 07:12:24;;;;;;;3.03;2.80;;;;;;;14.90;61.20;95082.72;5089929;28;20441;-76
2021/05/08 07:14:50;;;;;;;3.07;2.87;;;;;;;14.72;61.65;95080.91;5093215;28;20442;-76
2021/05/08 07:17:16;;;;;;;4.50;2.90;;;;;;;14.64;61.84;95088.75;5084762;28;20553;-76
2021/05/08 07:19:43;;;;;;;4.23;3.93;;;;;;;14.68;61.30;95089.28;5059178;28;20455;-76
2021/05/08 07:22:10;;;;;;;4.10;3.70;;;;;;;14.77;61.87;95083.94;5091762;28;20445;-76
2021/05/08 07:24:36;;;;;;;3.93;3.63;;;;;;;14.62;61.62;95096.00;5073199;28;20445;-76
2021/05/08 07:27:03;;;;;;;5.20;3.30;;;;;;;14.72;61.78;95098.56;5070753;28;20438;-76
2021/05/08 07:29:29;;;;;;;4.10;3.80;;;;;;;14.63;62.50;95099.47;5072861;28;20447;-75
2021/05/08 07:31:55;;;;;;;7.23;3.77;;;;;;;14.41;62.17;95105.97;5072654;28;20451;-76
2021/05/08 07:34:21;;;;;;;5.57;3.50;;;;;;;14.21;62.37;95107.91;5072993;28;20441;-75
2021/05/08 07:36:48;;;;;;;5.67;3.47;;;;;;;14.26;62.25;95106.47;5080895;28;20491;-75
2021/05/08 07:39:15;;;;;;;4.00;3.70;;;;;;;14.20;61.97;95098.31;5092646;28;20517;-75
2021/05/08 07:41:41;;;;;;;4.40;4.00;;;;;;;14.20;66.61;95108.88;5057074;28;20941;-77
2021/05/08 07:44:08;;;;;;;4.47;4.13;;;;;;;14.02;62.31;95098.25;5072307;28;20456;-76
2021/05/08 07:46:35;;;;;;;4.50;4.10;;;;;;;13.91;62.74;95116.91;5077875;28;20445;-76
2021/05/08 07:49:02;;;;;;;3.97;3.67;;;;;;;13.77;63.50;95106.81;5087305;28;20452;-76
2021/05/08 07:51:28;;;;;;;5.27;4.80;;;;;;;13.96;63.37;95114.66;5084833;28;20447;-77
2021/05/08 07:53:55;;;;;;;5.07;4.40;;;;;;;14.09;62.70;95103.78;5053971;28;21492;-76
2021/05/08 07:56:22;;;;;;;4.47;4.07;;;;;;;14.08;62.61;95102.09;5074631;28;20482;-76
2021/05/08 07:58:49;;;;;;;4.73;4.23;;;;;;;14.09;63.29;95116.97;5073141;28;20448;-75
2021/05/08 08:01:15;;;;;;;5.10;4.60;;;;;;;14.10;64.27;95113.34;5072441;28;20490;-76
2021/05/08 08:03:41;;;;;;;5.80;4.50;;;;;;;14.13;63.51;95105.97;5072464;28;20454;-76
2021/05/08 08:06:08;;;;;;;3.97;3.67;;;;;;;14.25;62.42;95104.81;5087141;28;20450;-76
2021/05/08 08:08:34;;;;;;;5.60;4.60;;;;;;;14.36;62.21;95110.84;5086333;28;20486;-76
2021/05/08 08:11:00;;;;;;;5.00;4.20;;;;;;;14.58;61.04;95121.03;5051270;28;20448;-76
2021/05/08 08:13:28;;;;;;;4.80;4.40;;;;;;;14.79;60.34;95113.69;5072646;28;20457;-76
2021/05/08 08:15:54;;;;;;;4.43;4.13;;;;;;;14.84;59.51;95106.13;5072316;28;21023;-76
2021/05/08 08:18:22;;;;;;;4.43;4.13;;;;;;;14.93;62.76;95095.63;5072543;28;20449;-76
2021/05/08 08:20:48;;;;;;;6.43;3.90;;;;;;;14.76;59.68;95100.78;5089920;28;20458;-75
2021/05/08 08:23:15;;;;;;;4.73;4.33;;;;;;;14.84;61.09;95098.19;5091040;28;20447;-76
2021/05/08 08:25:42;;;;;;;4.70;4.30;;;;;;;14.87;59.24;95105.81;5094684;28;20946;-77
2021/05/08 08:28:08;;;;;;;4.43;4.03;;;;;;;14.86;59.80;95100.69;5098903;28;20440;-77
2021/05/08 08:30:35;;;;;;;7.03;5.07;;;;;;;14.92;62.66;95096.59;5096653;28;20942;-78
2021/05/08 08:33:02;;;;;;;5.73;5.07;;;;;;;14.96;61.53;95095.31;5096664;28;20450;-78
2021/05/08 08:35:28;;;;;;;6.20;4.70;;;;;;;14.83;59.83;95078.06;5096722;28;20541;-78
2021/05/08 08:37:54;;;;;;;4.63;4.23;;;;;;;14.78;61.73;95097.97;5097024;28;20924;-75
2021/05/08 08:40:21;;;;;;;5.07;4.50;;;;;;;14.76;60.47;95098.13;5096876;28;20489;-77
2021/05/08 08:42:48;;;;;;;5.60;5.10;;;;;;;14.64;60.40;95099.31;5097115;28;20452;-78
2021/05/08 08:45:15;;;;;;;7.40;6.20;;;;;;;14.55;62.97;95100.22;5097217;28;20453;-77
2021/05/08 08:47:43;;;;;;;6.60;4.83;;;;;;;14.42;60.87;95097.06;5097051;28;20441;-77
2021/05/08 08:50:11;;;;;;;4.87;4.50;;;;;;;14.39;60.73;95094.72;5096937;28;20491;-76
2021/05/08 08:52:38;;;;;;;9.63;4.30;;;;;;;14.31;61.56;95097.28;5096352;28;20923;-74
2021/05/08 08:55:07;;;;;;;7.63;4.90;;;;;;;14.29;60.10;95100.06;5096759;28;20489;-73
2021/05/08 08:57:36;;;;;;;6.03;5.43;;;;;;;14.27;60.61;95087.00;5096710;28;20488;-74
2021/05/08 09:00:06;;;;;;;4.70;4.30;;;;;;;14.31;61.65;95097.28;5096433;28;20498;-74
2021/05/08 09:02:32;;;;;;;9.70;5.83;;;;;;;14.43;61.58;95096.09;5095937;28;20491;-76
2021/05/08 09:05:00;;;;;;;4.50;4.10;;;;;;;14.44;59.62;95095.13;5096563;28;20445;-77
2021/05/08 09:07:28;;;;;;;10.53;4.43;;;;;;;14.61;60.28;95089.06;5096737;28;21057;-75
2021/05/08 09:09:55;;;;;;;6.80;5.30;;;;;;;14.75;59.58;95096.47;5060691;28;20802;-75
2021/05/08 09:12:26;;;;;;;7.50;4.83;;;;;;;14.95;60.16;95097.13;5096406;28;20446;-75
2021/05/08 09:14:53;;;;;;;9.43;5.57;;;;;;;15.01;59.77;95095.69;5096204;28;20452;-76
2021/05/08 09:17:22;;;;;;;5.47;4.97;;;;;;;15.13;61.42;95092.69;5096235;28;20482;-75
2021/05/08 09:19:56;;;;;;;7.27;5.60;;;;;;;15.17;59.85;95086.09;5096203;28;20433;-75
2021/05/08 09:22:32;;;;;;;5.20;4.70;;;;;;;15.09;58.51;95078.09;5096635;28;20499;-75
2021/05/08 09:25:00;;;;;;;6.17;5.57;;;;;;;14.89;60.43;95081.91;5096255;28;20927;-75
2021/05/08 09:27:38;;;;;;;8.63;5.70;;;;;;;15.03;59.33;95081.34;5076745;28;20457;-75
2021/05/08 09:30:09;;;;;;;6.40;5.30;;;;;;;15.08;58.34;95086.19;5096250;28;20437;-77
2021/05/08 09:32:37;;;;;;;5.97;5.43;;;;;;;15.04;58.77;95076.91;5096548;28;20425;-77
2021/05/08 09:35:07;;;;;;;5.10;4.70;;;;;;;15.15;59.05;95081.94;5095857;28;20799;-76
2021/05/08 09:37:35;;;;;;;5.30;4.80;;;;;;;15.43;58.37;95080.84;5094621;28;20925;-76
2021/05/08 09:40:19;;;;;;;5.23;4.73;;;;;;;15.50;57.12;95079.22;5095971;28;20510;-76
2021/05/08 09:42:48;;;;;;;5.53;4.97;;;;;;;15.50;56.81;95073.94;5096015;28;20780;-75
2021/05/08 09:45:15;;;;;;;5.70;5.20;;;;;;;15.58;55.54;95067.03;5096048;28;20523;-76
2021/05/08 09:47:43;;;;;;;5.07;4.57;;;;;;;15.38;55.94;95077.84;5096060;28;20470;-77
2021/05/08 09:50:11;;;;;;;6.27;4.87;;;;;;;15.35;56.42;95072.84;5096269;28;20509;-77
2021/05/08 09:52:56;;;;;;;5.90;5.40;;;;;;;15.49;56.83;95084.66;5094763;28;20499;-77
2021/05/08 09:55:24;;;;;;;5.57;5.03;;;;;;;15.44;56.10;95071.91;5095397;28;20572;-77
2021/05/08 09:58:00;;;;;;;5.70;5.13;;;;;;;15.60;57.94;95075.66;5095270;28;20548;-76
2021/05/08 10:00:32;;;;;;;4.67;4.17;;;;;;;15.41;55.90;95066.13;5095270;28;20541;-75
2021/05/08 10:03:16;;;;;;;6.10;5.50;;;;;;;15.38;56.27;95085.75;5095336;28;20955;-76
2021/05/08 10:05:47;;;;;;;10.03;5.40;;;;;;;15.35;56.63;95082.59;5094928;28;20482;-78
2021/05/08 10:08:15;;;;;;;5.90;5.40;;;;;;;15.29;57.31;95084.03;5095387;28;20451;-75
2021/05/08 10:10:41;;;;;;;4.63;4.23;;;;;;;15.41;58.25;95096.03;5095059;28;20449;-77
2021/05/08 10:13:09;;;;;;;7.10;4.77;;;;;;;15.46;56.17;95088.47;5094703;28;20457;-75
2021/05/08 10:15:38;;;;;;;5.33;4.70;;;;;;;15.46;56.92;95092.91;5094670;28;20446;-74
2021/05/08 10:18:07;;;;;;;5.17;4.77;;;;;;;15.45;56.83;95105.31;5075843;28;20493;-75
2021/05/08 10:20:35;;;;;;;4.93;4.57;;;;;;;15.41;55.94;95090.75;5094968;28;20454;-75
2021/05/08 10:23:06;;;;;;;5.83;4.93;;;;;;;15.66;56.80;95090.94;5094651;28;20444;-75
2021/05/08 10:25:34;;;;;;;5.23;4.73;;;;;;;15.79;55.05;95092.16;5094617;28;20460;-75
2021/05/08 10:28:00;;;;;;;5.33;4.03;;;;;;;16.05;55.71;95088.66;5094353;28;20443;-75
2021/05/08 10:30:31;;;;;;;5.53;5.03;;;;;;;16.24;55.07;95077.84;5058640;28;20444;-77
2021/05/08 10:32:58;;;;;;;6.97;6.37;;;;;;;16.36;53.59;95078.34;5094936;28;20444;-79
2021/05/08 10:35:38;;;;;;;5.90;5.40;;;;;;;16.45;52.65;95080.03;5094743;28;20440;-76
2021/05/08 10:38:19;;;;;;;6.10;5.50;;;;;;;16.36;52.99;95073.06;5094593;28;20457;-75
2021/05/08 10:40:54;;;;;;;9.30;7.77;;;;;;;16.26;52.20;95073.19;5094574;28;20450;-75
2021/05/08 10:43:37;;;;;;;7.00;4.53;;;;;;;16.07;51.66;95082.22;5075744;28;20443;-75
2021/05/08 10:46:04;;;;;;;4.90;4.50;;;;;;;16.16;52.66;95072.47;5094652;28;20442;-76
2021/05/08 10:48:30;;;;;;;6.20;4.43;;;;;;;16.18;51.34;95069.66;5094211;28;20452;-75
2021/05/08 10:50:58;;;;;;;4.23;3.80;;;;;;;16.03;51.77;95077.41;5094128;28;20439;-76
2021/05/08 10:53:40;;;;;;;5.20;4.70;;;;;;;16.01;51.28;95074.09;5092865;28;20450;-76
2021/05/08 10:56:08;;;;;;;4.23;3.70;;;;;;;16.01;51.44;95080.22;5074073;28;20511;-75
2021/05/08 10:58:38;;;;;;;5.70;4.47;;;;;;;16.18;50.79;95072.31;5090020;28;20457;-75
2021/05/08 11:01:09;;;;;;;9.50;4.47;;;;;;;16.26;50.17;95070.56;5094008;28;20456;-75
2021/05/08 11:04:04;;;;;;;4.23;3.90;;;;;;;16.53;49.27;95064.19;5094105;28;20449;-76
2021/05/08 11:06:30;;;;;;;3.90;3.53;;;;;;;16.69;48.08;95081.94;5093788;28;20943;-75
2021/05/08 11:08:57;;;;;;;4.10;3.80;;;;;;;16.75;47.11;95077.81;5089251;28;20967;-75
2021/05/08 11:11:43;;;;;;;4.30;3.70;;;;;;;16.89;47.49;95078.00;5073319;28;20453;-75
2021/05/08 11:14:09;;;;;;;5.70;5.20;;;;;;;16.86;47.63;95075.69;5073242;28;20461;-75
2021/05/08 11:16:36;;;;;;;4.13;3.83;;;;;;;16.68;47.80;95061.75;5073158;28;20509;-75
2021/05/08 11:19:05;;;;;;;5.87;4.00;;;;;;;16.69;46.93;95064.22;5073040;28;20469;-74
2021/05/08 11:21:43;;;;;;;4.10;3.80;;;;;;;16.72;46.20;95079.78;5073394;28;20484;-75
2021/05/08 11:24:11;;;;;;;11.10;4.50;;;;;;;16.69;48.58;95061.56;5073025;28;20445;-75
2021/05/08 11:26:41;;;;;;;5.23;4.27;;;;;;;16.60;46.92;95065.19;5054526;28;20443;-75
2021/05/08 11:29:09;;;;;;;6.20;3.63;;;;;;;16.53;46.38;95061.53;5072513;28;20487;-74
2021/05/08 11:31:37;;;;;;;3.87;3.50;;;;;;;16.34;47.47;95059.97;5092164;28;20692;-77
2021/05/08 11:34:05;;;;;;;3.17;2.87;;;;;;;16.47;47.39;95067.44;5092157;28;20841;-77